Time;durP1;ratioP1;P1;durP2;ratioP2;P2;SDS_P1;SDS_P2;PMS_P1;PMS_P2;Temp;Humidity;BMP_temperature;BMP_pressure;BME280_temperature;BME280_humidity;BME280_pressure;Samples;Min_cycle;Max_cycle;Signal;HPM_P1;HPM_P2
2021/09/27 00:00:36;;;;;;;5.47;5.07;;;;;;;18.64;95.96;100632.81;5037593;28;20207;-80
2021/09/27 00:03:04;;;;;;;6.17;5.67;;;;;;;18.38;97.83;100596.25;5037224;28;20204;-81
2021/09/27 00:05:32;;;;;;;6.03;5.53;;;;;;;18.47;97.75;100587.84;5037744;28;20273;-80
2021/09/27 00:07:58;;;;;;;5.63;4.93;;;;;;;18.51;97.40;100604.44;5038123;28;20240;-80
2021/09/27 00:10:28;;;;;;;4.43;4.13;;;;;;;18.56;97.19;100610.34;5037631;28;20215;-79
2021/09/27 00:12:54;;;;;;;4.60;4.20;;;;;;;18.61;96.58;100616.25;5037541;28;20267;-79
2021/09/27 00:15:25;;;;;;;5.53;4.33;;;;;;;18.61;96.32;100626.81;5037515;28;20266;-80
2021/09/27 00:17:52;;;;;;;5.33;4.00;;;;;;;18.62;96.00;100632.03;5036875;28;20240;-80
2021/09/27 00:20:20;;;;;;;4.90;4.50;;;;;;;18.60;96.39;100625.13;5036935;28;20208;-80
2021/09/27 00:22:48;;;;;;;4.90;4.47;;;;;;;18.56;96.58;100616.50;5032963;28;20248;-81
2021/09/27 00:25:16;;;;;;;5.60;5.10;;;;;;;18.65;96.46;100621.34;5029131;28;20219;-81
2021/09/27 00:27:42;;;;;;;5.43;4.93;;;;;;;18.68;95.84;100646.75;5038039;28;20629;-79
2021/09/27 00:30:10;;;;;;;5.60;5.00;;;;;;;18.68;95.89;100643.25;5037948;28;20250;-80
2021/09/27 00:32:36;;;;;;;5.20;4.80;;;;;;;18.64;95.88;100639.91;5038041;28;20267;-80
2021/09/27 00:35:04;;;;;;;5.10;4.70;;;;;;;18.66;95.83;100640.69;5038511;28;20212;-80
2021/09/27 00:37:32;;;;;;;7.63;6.93;;;;;;;18.65;95.58;100639.84;5038554;28;20205;-78
2021/09/27 00:39:58;;;;;;;6.50;5.90;;;;;;;18.62;95.63;100641.78;5037748;28;20235;-80
2021/09/27 00:42:24;;;;;;;9.07;6.77;;;;;;;18.63;95.54;100641.72;5037985;28;20251;-79
2021/09/27 00:44:51;;;;;;;7.30;6.70;;;;;;;18.65;95.42;100646.91;5037527;28;20248;-80
2021/09/27 00:47:17;;;;;;;8.63;7.80;;;;;;;18.65;95.43;100646.91;5038371;28;20205;-78
2021/09/27 00:49:44;;;;;;;8.23;7.60;;;;;;;18.59;95.88;100629.56;5037490;28;20213;-80
2021/09/27 00:52:11;;;;;;;7.73;7.13;;;;;;;18.62;95.87;100631.19;5038067;28;20209;-81
2021/09/27 00:54:39;;;;;;;8.90;7.90;;;;;;;18.59;95.89;100632.22;5025496;28;20198;-81
2021/09/27 00:57:12;;;;;;;8.43;7.73;;;;;;;18.62;95.63;100639.97;5036732;28;20236;-81
2021/09/27 00:59:41;;;;;;;10.80;9.90;;;;;;;18.63;95.72;100640.81;5037290;28;20208;-81
2021/09/27 01:02:08;;;;;;;8.87;8.07;;;;;;;18.63;95.83;100638.19;5037143;28;20219;-80
2021/09/27 01:04:35;;;;;;;8.87;8.27;;;;;;;18.63;95.52;100640.81;5037219;28;20216;-80
2021/09/27 01:07:12;;;;;;;8.10;7.40;;;;;;;18.64;95.68;100642.56;5037154;28;20278;-80
2021/09/27 01:09:56;;;;;;;10.40;9.70;;;;;;;18.63;95.29;100647.00;5036618;28;20582;-80
2021/09/27 01:12:35;;;;;;;10.37;9.47;;;;;;;18.62;95.66;100634.69;5036847;28;20220;-80
2021/09/27 01:15:20;;;;;;;12.90;11.70;;;;;;;18.60;96.01;100631.25;5037196;28;20212;-81
2021/09/27 01:17:55;;;;;;;11.60;10.70;;;;;;;18.57;95.99;100618.22;5036887;28;20212;-81
2021/09/27 01:21:09;;;;;;;11.53;10.60;;;;;;;18.48;96.64;100605.44;5036612;28;20199;-80
2021/09/27 01:24:11;;;;;;;14.80;13.40;;;;;;;18.50;97.00;100585.06;5032640;28;20270;-81
2021/09/27 01:26:57;;;;;;;14.70;13.40;;;;;;;18.53;97.32;100584.06;5000612;28;20256;-83
2021/09/27 01:29:44;;;;;;;14.57;13.20;;;;;;;18.53;97.10;100584.94;5017263;28;20667;-85
2021/09/27 01:32:24;;;;;;;14.63;13.40;;;;;;;18.57;96.67;100589.13;5017328;28;20244;-80
2021/09/27 01:35:00;;;;;;;13.67;12.30;;;;;;;18.54;97.05;100583.13;5016337;28;20319;-81
2021/09/27 01:37:35;;;;;;;14.33;13.17;;;;;;;18.49;97.10;100586.00;5016908;28;20233;-78
2021/09/27 01:40:10;;;;;;;14.47;13.23;;;;;;;18.50;97.47;100581.59;5016253;28;20214;-81
2021/09/27 01:42:44;;;;;;;12.83;11.90;;;;;;;18.47;97.36;100582.56;5016332;28;20211;-81
2021/09/27 01:45:21;;;;;;;13.00;12.00;;;;;;;18.49;97.26;100578.06;5016680;28;20213;-81
2021/09/27 01:47:59;;;;;;;12.67;11.47;;;;;;;18.50;97.56;100581.59;5016513;28;20260;-81
2021/09/27 01:50:31;;;;;;;12.00;11.07;;;;;;;18.50;97.57;100582.44;5016070;28;20204;-80
2021/09/27 01:53:03;;;;;;;11.73;10.83;;;;;;;18.52;97.51;100580.56;5017993;28;20276;-80
2021/09/27 01:55:34;;;;;;;13.67;12.43;;;;;;;18.48;97.39;100589.59;5027961;28;20224;-80
2021/09/27 01:58:05;;;;;;;13.37;12.00;;;;;;;18.52;97.28;100592.94;5037146;28;20204;-80
2021/09/27 02:00:38;;;;;;;12.80;11.70;;;;;;;18.52;96.94;100579.72;5036721;28;20697;-81
2021/09/27 02:03:17;;;;;;;10.67;9.77;;;;;;;18.55;96.88;100588.34;5036873;28;20211;-78
2021/09/27 02:05:51;;;;;;;13.03;11.87;;;;;;;18.54;96.52;100601.66;5036676;28;20721;-79
2021/09/27 02:08:23;;;;;;;12.33;11.23;;;;;;;18.54;96.51;100604.28;5035808;28;20297;-78
2021/09/27 02:10:55;;;;;;;11.73;10.73;;;;;;;18.56;96.58;100595.34;5037178;28;20213;-79
2021/09/27 02:13:25;;;;;;;13.27;12.17;;;;;;;18.57;96.40;100604.13;5036449;28;20267;-80
2021/09/27 02:16:00;;;;;;;13.63;12.53;;;;;;;18.53;96.46;100608.72;5036120;28;20250;-79
2021/09/27 02:18:36;;;;;;;12.77;11.87;;;;;;;18.56;96.46;100603.28;5036613;28;20276;-79
2021/09/27 02:21:07;;;;;;;13.87;12.77;;;;;;;18.51;96.40;100601.78;5036570;28;20204;-78
2021/09/27 02:23:41;;;;;;;13.80;12.70;;;;;;;18.50;96.78;100598.28;5031618;28;20254;-80
2021/09/27 02:26:07;;;;;;;14.77;13.67;;;;;;;18.49;96.90;100599.22;5028320;28;20223;-79
2021/09/27 02:28:34;;;;;;;13.90;12.77;;;;;;;18.46;97.21;100586.16;5036312;28;20266;-80
2021/09/27 02:31:07;;;;;;;14.13;12.90;;;;;;;18.49;96.75;100604.50;5036416;28;20262;-80
2021/09/27 02:33:43;;;;;;;12.87;11.77;;;;;;;18.51;96.37;100615.84;5036620;28;20228;-80
2021/09/27 02:36:15;;;;;;;14.40;13.20;;;;;;;18.51;96.04;100625.56;5036190;28;20255;-80
2021/09/27 02:38:50;;;;;;;13.47;12.40;;;;;;;18.52;96.39;100622.84;5036089;28;20654;-77
2021/09/27 02:41:25;;;;;;;13.93;12.73;;;;;;;18.51;96.49;100622.94;5036311;28;20203;-81
2021/09/27 02:43:52;;;;;;;14.37;13.27;;;;;;;18.47;96.61;100614.28;5036016;28;20207;-80
2021/09/27 02:46:19;;;;;;;14.00;12.83;;;;;;;18.50;96.70;100611.50;5036378;28;20233;-79
2021/09/27 02:48:55;;;;;;;15.17;14.07;;;;;;;18.50;96.55;100613.31;5036101;28;20242;-80
2021/09/27 02:51:22;;;;;;;14.00;12.70;;;;;;;18.48;96.61;100610.72;5036938;28;20279;-79
2021/09/27 02:53:49;;;;;;;14.17;12.83;;;;;;;18.48;96.82;100610.72;5030821;28;20255;-80
2021/09/27 02:56:29;;;;;;;14.33;13.23;;;;;;;18.49;96.68;100604.50;5027989;28;20255;-78
2021/09/27 02:59:08;;;;;;;13.97;12.87;;;;;;;18.49;96.51;100608.94;5035906;28;20211;-79
2021/09/27 03:01:42;;;;;;;12.73;11.80;;;;;;;18.46;96.84;100607.31;5036450;28;20238;-80
2021/09/27 03:04:13;;;;;;;11.87;11.07;;;;;;;18.48;96.54;100623.09;5035101;28;20262;-80
2021/09/27 03:06:52;;;;;;;13.47;12.30;;;;;;;18.47;96.31;100614.28;5035457;28;20791;-78
2021/09/27 03:09:27;;;;;;;13.50;12.50;;;;;;;18.47;96.53;100611.66;5035496;28;20736;-80
2021/09/27 03:12:16;;;;;;;12.10;11.13;;;;;;;18.48;96.31;100613.38;5035773;28;20211;-81
2021/09/27 03:15:07;;;;;;;11.67;10.73;;;;;;;18.49;96.27;100607.13;5036170;28;20236;-79
2021/09/27 03:17:40;;;;;;;12.50;11.63;;;;;;;18.51;96.29;100613.19;5036455;28;20199;-79
2021/09/27 03:20:21;;;;;;;13.00;12.00;;;;;;;18.50;96.26;100605.38;5035705;28;20231;-79
2021/09/27 03:22:58;;;;;;;12.07;11.07;;;;;;;18.47;96.38;100603.72;5031400;28;20232;-80
2021/09/27 03:25:34;;;;;;;13.33;12.23;;;;;;;18.47;96.40;100593.13;5027476;28;20255;-80
2021/09/27 03:28:11;;;;;;;13.53;12.53;;;;;;;18.44;96.74;100580.94;5035993;28;20751;-80
2021/09/27 03:30:45;;;;;;;12.10;11.20;;;;;;;18.42;96.95;100580.16;5036312;28;20212;-79
2021/09/27 03:33:22;;;;;;;14.47;13.27;;;;;;;18.43;96.64;100576.59;5035827;28;20235;-80
2021/09/27 03:36:10;;;;;;;14.03;12.97;;;;;;;18.42;96.83;100566.94;5035428;28;20726;-79
2021/09/27 03:38:43;;;;;;;14.00;13.00;;;;;;;18.39;96.81;100571.53;5035438;28;20247;-80
2021/09/27 03:41:21;;;;;;;14.07;12.87;;;;;;;18.40;96.94;100565.31;5035959;28;20232;-80
2021/09/27 03:43:59;;;;;;;14.17;12.97;;;;;;;18.38;96.86;100560.09;5035763;28;20213;-80
2021/09/27 03:46:36;;;;;;;12.67;11.60;;;;;;;18.35;97.41;100554.94;5035557;28;20247;-80
2021/09/27 03:49:09;;;;;;;12.33;11.53;;;;;;;18.36;96.87;100564.59;5035652;28;20220;-77
2021/09/27 03:51:43;;;;;;;13.30;12.30;;;;;;;18.33;96.69;100561.25;5035735;28;20248;-79
2021/09/27 03:54:15;;;;;;;13.37;12.23;;;;;;;18.35;96.58;100559.38;5027591;28;20245;-80
2021/09/27 03:56:48;;;;;;;13.17;12.07;;;;;;;18.33;96.58;100563.91;5031585;28;20256;-80
2021/09/27 03:59:18;;;;;;;12.73;11.63;;;;;;;18.33;96.71;100558.63;5035474;28;20208;-80
2021/09/27 04:01:54;;;;;;;13.03;11.93;;;;;;;18.31;96.90;100556.03;5036208;28;20214;-80
2021/09/27 04:04:33;;;;;;;13.87;12.67;;;;;;;18.31;96.96;100549.91;5035995;28;20303;-80
2021/09/27 04:07:15;;;;;;;13.67;12.50;;;;;;;18.28;97.03;100540.34;5035738;28;20224;-80
2021/09/27 04:09:49;;;;;;;14.03;12.60;;;;;;;18.23;97.27;100530.00;5034747;28;20235;-80
2021/09/27 04:12:27;;;;;;;12.63;11.63;;;;;;;18.25;97.21;100528.16;5035805;28;20655;-80
2021/09/27 04:15:05;;;;;;;12.87;11.87;;;;;;;18.23;97.49;100527.34;5037233;28;20230;-80
2021/09/27 04:17:51;;;;;;;11.43;10.63;;;;;;;18.22;97.40;100520.38;5038763;28;20203;-80
2021/09/27 04:20:25;;;;;;;11.90;10.90;;;;;;;18.25;97.10;100528.16;5039109;28;20214;-80
2021/09/27 04:23:06;;;;;;;11.77;10.60;;;;;;;18.22;96.78;100530.94;5034532;28;20578;-80
2021/09/27 04:25:40;;;;;;;12.57;11.67;;;;;;;18.21;96.98;100546.84;5029361;28;20247;-81
2021/09/27 04:28:35;;;;;;;11.70;10.83;;;;;;;18.22;96.71;100544.16;5030061;28;20277;-80
2021/09/27 04:31:14;;;;;;;12.93;11.97;;;;;;;18.21;96.60;100550.34;5035726;28;20205;-78
2021/09/27 04:34:02;;;;;;;12.27;11.27;;;;;;;18.21;96.58;100560.06;5030758;28;20807;-80
2021/09/27 04:36:31;;;;;;;13.50;12.20;;;;;;;18.17;96.89;100554.06;5038190;28;20226;-80
2021/09/27 04:39:05;;;;;;;13.10;12.20;;;;;;;18.18;97.01;100541.75;5037927;28;20219;-79
2021/09/27 04:41:55;;;;;;;11.97;11.17;;;;;;;18.19;96.72;100535.50;5038565;28;20682;-79
2021/09/27 04:44:32;;;;;;;12.80;11.67;;;;;;;18.16;96.82;100541.81;5038825;28;20566;-80
2021/09/27 04:47:10;;;;;;;11.30;10.50;;;;;;;18.12;96.93;100534.13;5038079;28;20741;-80
2021/09/27 04:49:51;;;;;;;11.23;10.40;;;;;;;18.10;97.02;100528.06;5038642;28;20212;-80
2021/09/27 04:52:24;;;;;;;10.83;10.03;;;;;;;18.05;97.14;100528.25;5030797;28;20211;-81
2021/09/27 04:55:05;;;;;;;10.60;9.80;;;;;;;18.02;96.85;100537.19;5029659;28;20215;-80
2021/09/27 04:57:42;;;;;;;11.60;10.63;;;;;;;18.02;96.43;100549.56;5032138;28;20298;-80
2021/09/27 05:00:17;;;;;;;12.27;10.97;;;;;;;18.01;96.13;100561.03;5029952;28;20260;-79
2021/09/27 05:02:58;;;;;;;10.93;10.03;;;;;;;18.00;96.24;100561.97;5037849;28;20238;-80
2021/09/27 05:05:42;;;;;;;10.37;9.67;;;;;;;17.95;96.38;100559.53;5037899;28;20637;-80
2021/09/27 05:08:27;;;;;;;10.83;10.03;;;;;;;17.89;96.38;100549.28;5038506;28;20212;-80
2021/09/27 05:11:15;;;;;;;10.97;10.27;;;;;;;17.86;96.47;100552.06;5038322;28;20211;-80
2021/09/27 05:14:13;;;;;;;10.40;9.70;;;;;;;17.82;96.46;100551.31;5037800;28;20203;-80
2021/09/27 05:16:50;;;;;;;10.63;9.93;;;;;;;17.79;96.79;100551.44;5034870;28;20238;-80
2021/09/27 05:19:30;;;;;;;10.37;9.47;;;;;;;17.81;96.19;100554.88;5037870;28;20411;-80
2021/09/27 05:22:23;;;;;;;10.77;9.87;;;;;;;17.79;95.95;100567.28;5038185;28;20293;-80
2021/09/27 05:25:03;;;;;;;11.00;10.10;;;;;;;17.78;95.52;100580.56;5037368;28;20736;-80
2021/09/27 05:28:12;;;;;;;10.67;9.77;;;;;;;17.70;95.74;100575.66;5031534;28;20281;-80
2021/09/27 05:30:55;;;;;;;13.10;12.07;;;;;;;17.64;96.06;100571.53;5030099;28;20204;-80
2021/09/27 05:33:30;;;;;;;12.97;12.07;;;;;;;17.62;96.01;100562.81;5036596;28;20207;-79
2021/09/27 05:36:18;;;;;;;12.10;11.00;;;;;;;17.58;96.35;100550.69;5036322;28;20657;-81
2021/09/27 05:38:57;;;;;;;12.27;11.37;;;;;;;17.56;96.26;100538.47;5031981;28;20200;-81
2021/09/27 05:41:36;;;;;;;11.77;10.77;;;;;;;17.54;96.26;100542.97;5023050;28;20687;-81
2021/09/27 05:44:17;;;;;;;12.67;11.63;;;;;;;17.53;96.27;100554.47;5036256;28;20870;-80
2021/09/27 05:47:06;;;;;;;13.97;12.97;;;;;;;17.38;97.01;100519.06;5035757;28;20262;-80
2021/09/27 05:49:45;;;;;;;13.87;12.77;;;;;;;17.39;96.99;100515.50;5035636;28;20264;-80
2021/09/27 05:52:16;;;;;;;12.63;11.67;;;;;;;17.38;97.07;100511.16;5008578;28;20204;-82
2021/09/27 05:54:54;;;;;;;13.10;12.00;;;;;;;17.33;97.30;100498.19;5005018;28;20642;-81
2021/09/27 05:57:28;;;;;;;14.23;13.23;;;;;;;17.32;97.18;100504.38;5005647;28;20205;-80
2021/09/27 06:00:04;;;;;;;13.53;12.53;;;;;;;17.33;97.28;100499.97;5004945;28;20600;-80
2021/09/27 06:02:47;;;;;;;12.13;11.13;;;;;;;17.36;97.07;100492.78;5005987;28;20267;-79
2021/09/27 06:05:17;;;;;;;11.97;11.17;;;;;;;17.35;97.09;100513.94;5006239;28;20281;-80
2021/09/27 06:07:54;;;;;;;12.10;11.23;;;;;;;17.37;96.82;100514.72;5007406;28;20210;-79
2021/09/27 06:10:29;;;;;;;12.50;11.43;;;;;;;17.34;97.19;100517.50;5007548;28;20283;-81
2021/09/27 06:13:06;;;;;;;14.33;13.13;;;;;;;17.31;97.26;100509.75;5005557;28;20201;-82
2021/09/27 06:15:41;;;;;;;13.47;12.47;;;;;;;17.24;97.67;100501.22;5005378;28;20219;-81
2021/09/27 06:18:18;;;;;;;15.33;14.00;;;;;;;17.22;98.12;100488.13;5004735;28;20199;-81
2021/09/27 06:20:56;;;;;;;14.93;13.73;;;;;;;17.28;98.25;100481.69;5004507;28;20610;-81
2021/09/27 06:23:49;;;;;;;15.50;14.40;;;;;;;17.27;98.21;100483.47;5004598;28;20223;-80
2021/09/27 06:26:17;;;;;;;13.53;12.50;;;;;;;17.22;98.39;100484.63;5005656;28;20258;-81
2021/09/27 06:28:51;;;;;;;13.63;12.50;;;;;;;17.25;98.23;100495.03;5003556;28;20224;-83
2021/09/27 06:31:25;;;;;;;15.43;14.23;;;;;;;17.25;97.98;100502.94;5004111;28;20238;-81
2021/09/27 06:34:00;;;;;;;15.13;13.77;;;;;;;17.23;98.11;100492.47;5004601;28;20230;-82
2021/09/27 06:36:32;;;;;;;15.23;14.03;;;;;;;17.27;98.08;100494.03;5002402;28;20209;-82
2021/09/27 06:39:03;;;;;;;14.20;13.20;;;;;;;17.32;97.79;100514.91;5008440;28;20204;-82
2021/09/27 06:41:34;;;;;;;15.37;14.27;;;;;;;17.28;97.77;100508.06;5010475;28;20227;-82
2021/09/27 06:44:01;;;;;;;17.30;15.73;;;;;;;17.30;97.71;100505.38;5003813;28;20624;-82
2021/09/27 06:46:27;;;;;;;15.13;14.03;;;;;;;17.27;97.74;100506.38;5002521;28;20252;-84
2021/09/27 06:48:55;;;;;;;17.00;15.67;;;;;;;17.29;97.58;100512.44;5006065;28;20201;-79
2021/09/27 06:51:21;;;;;;;16.73;14.13;;;;;;;17.29;97.86;100512.44;5004847;28;20231;-80
2021/09/27 06:53:47;;;;;;;14.83;13.83;;;;;;;17.29;97.91;100515.06;5006159;28;20207;-80
2021/09/27 06:56:14;;;;;;;16.07;14.67;;;;;;;17.32;97.90;100511.44;5007015;28;20236;-80
2021/09/27 06:58:40;;;;;;;15.97;14.87;;;;;;;17.23;98.02;100505.66;5005187;28;20246;-81
2021/09/27 07:01:07;;;;;;;16.10;14.77;;;;;;;17.25;98.35;100498.53;5005954;28;20203;-79
2021/09/27 07:03:33;;;;;;;15.30;14.10;;;;;;;17.22;98.77;100479.34;5002053;28;20956;-82
2021/09/27 07:06:01;;;;;;;14.73;13.67;;;;;;;17.25;99.09;100474.78;5000125;28;20275;-81
2021/09/27 07:08:29;;;;;;;16.67;15.10;;;;;;;17.33;98.99;100474.44;5007183;28;20257;-81
2021/09/27 07:10:56;;;;;;;15.83;14.63;;;;;;;17.35;98.96;100464.66;5017274;28;20199;-82
2021/09/27 07:13:23;;;;;;;16.17;14.87;;;;;;;17.34;99.36;100455.03;5003197;28;20203;-81
2021/09/27 07:15:49;;;;;;;20.17;18.23;;;;;;;17.34;99.66;100447.09;5004315;28;20234;-83
2021/09/27 07:18:16;;;;;;;20.93;19.20;;;;;;;17.38;100.00;100447.81;5007941;28;20194;-82
2021/09/27 07:20:43;;;;;;;16.70;15.40;;;;;;;17.39;100.00;100437.19;5013789;28;20620;-81
2021/09/27 07:23:11;;;;;;;18.73;17.30;;;;;;;17.41;100.00;100437.97;5004002;28;20208;-79
2021/09/27 07:25:37;;;;;;;19.73;18.03;;;;;;;17.38;100.00;100426.72;5010315;28;20255;-79
2021/09/27 07:28:04;;;;;;;19.17;17.53;;;;;;;17.37;100.00;100415.31;5004197;28;20203;-81
2021/09/27 07:30:31;;;;;;;20.40;18.97;;;;;;;17.32;100.00;100409.38;5004505;28;20218;-82
2021/09/27 07:32:58;;;;;;;21.57;19.70;;;;;;;17.43;100.00;100422.94;5004847;28;20717;-81
2021/09/27 07:35:27;;;;;;;20.93;18.70;;;;;;;17.46;100.00;100425.44;5005220;28;20230;-80
2021/09/27 07:37:53;;;;;;;18.50;16.97;;;;;;;17.46;100.00;100422.81;5008213;28;20204;-82
2021/09/27 07:40:24;;;;;;;19.77;18.03;;;;;;;17.51;100.00;100414.66;5016584;28;20200;-82
2021/09/27 07:42:51;;;;;;;19.30;16.27;;;;;;;17.50;100.00;100414.72;5001575;28;20203;-84
2021/09/27 07:45:20;;;;;;;21.90;20.00;;;;;;;17.53;100.00;100422.50;5008508;28;20230;-82
2021/09/27 07:47:47;;;;;;;20.60;19.13;;;;;;;17.53;100.00;100433.91;5004556;28;20605;-81
2021/09/27 07:50:14;;;;;;;18.87;17.57;;;;;;;17.65;100.00;100443.88;5005406;28;20248;-80
2021/09/27 07:52:41;;;;;;;23.53;21.47;;;;;;;17.66;100.00;100428.91;5007859;28;20262;-82
2021/09/27 07:55:09;;;;;;;22.47;20.63;;;;;;;17.72;100.00;100419.81;5009503;28;20259;-81
2021/09/27 07:57:37;;;;;;;20.03;18.53;;;;;;;17.73;100.00;100442.66;5007125;28;20235;-80
2021/09/27 08:00:04;;;;;;;20.37;18.77;;;;;;;17.79;99.94;100480.16;5009149;28;20227;-79
2021/09/27 08:02:32;;;;;;;21.30;19.67;;;;;;;17.91;100.00;100475.25;5005483;28;20257;-79
2021/09/27 08:04:58;;;;;;;19.03;17.53;;;;;;;18.04;100.00;100463.16;5008250;28;20226;-79
2021/09/27 08:07:25;;;;;;;19.70;17.83;;;;;;;18.12;99.50;100482.13;5004842;28;20224;-79
2021/09/27 08:09:51;;;;;;;19.93;18.53;;;;;;;18.07;98.67;100510.53;5014220;28;20201;-79
2021/09/27 08:12:18;;;;;;;31.80;20.30;;;;;;;18.06;99.90;100482.44;5009497;28;20232;-80
2021/09/27 08:14:46;;;;;;;20.97;19.17;;;;;;;18.18;99.39;100486.25;5006987;28;20204;-79
2021/09/27 08:17:12;;;;;;;18.73;17.33;;;;;;;18.17;98.77;100517.09;5006503;28;20232;-79
2021/09/27 08:19:42;;;;;;;19.30;17.87;;;;;;;18.25;97.92;100536.09;5008258;28;20575;-82
2021/09/27 08:22:09;;;;;;;18.47;17.00;;;;;;;18.34;97.80;100536.56;5008156;28;20254;-78
2021/09/27 08:24:35;;;;;;;17.10;15.70;;;;;;;18.39;97.94;100542.44;5006396;28;20666;-82
2021/09/27 08:27:02;;;;;;;21.63;19.13;;;;;;;18.36;98.82;100508.25;5005652;28;20380;-79
2021/09/27 08:29:28;;;;;;;16.47;15.37;;;;;;;18.43;97.40;100538.72;5006568;28;20238;-84
2021/09/27 08:31:56;;;;;;;18.53;17.07;;;;;;;18.44;98.39;100528.06;5005830;28;20205;-83
2021/09/27 08:34:22;;;;;;;16.10;14.83;;;;;;;18.48;97.42;100543.78;5006545;28;20255;-78
2021/09/27 08:36:51;;;;;;;14.67;13.57;;;;;;;18.55;96.51;100566.31;5009298;28;20232;-83
2021/09/27 08:39:17;;;;;;;17.73;16.23;;;;;;;18.55;96.87;100555.75;5009306;28;20209;-80
2021/09/27 08:41:52;;;;;;;16.43;15.17;;;;;;;18.59;95.88;100560.84;5008140;28;20204;-81
2021/09/27 08:44:41;;;;;;;17.50;16.13;;;;;;;18.63;96.05;100570.31;5010836;28;20242;-83
2021/09/27 08:47:14;;;;;;;16.90;15.47;;;;;;;18.60;96.50;100551.09;5005617;28;20278;-82
2021/09/27 08:49:56;;;;;;;16.80;15.60;;;;;;;18.58;94.73;100619.91;5007322;28;20203;-83
2021/09/27 08:52:25;;;;;;;17.80;16.30;;;;;;;18.56;nan;100618.28;5002808;28;20213;-84
2021/09/27 08:54:52;;;;;;;18.03;16.63;;;;;;;18.63;94.94;100617.91;5004374;28;20250;-84
2021/09/27 08:57:42;;;;;;;17.67;16.13;;;;;;;18.61;96.40;100558.09;5007216;28;20205;-82
2021/09/27 09:00:25;;;;;;;15.60;14.50;;;;;;;18.62;96.00;100570.38;5001670;28;20560;-82
2021/09/27 09:03:00;;;;;;;16.30;15.00;;;;;;;18.65;92.95;100668.03;5003100;28;20679;-84
2021/09/27 09:05:43;;;;;;;15.00;13.90;;;;;;;18.71;92.35;100691.56;4998038;28;20233;-86
2021/09/27 09:08:21;;;;;;;16.00;14.80;;;;;;;18.93;93.70;100651.72;5006780;28;20425;-80
2021/09/27 09:10:53;;;;;;;16.00;14.80;;;;;;;19.06;92.82;100678.41;5029588;28;20195;-81
2021/09/27 09:13:25;;;;;;;15.60;14.60;;;;;;;19.09;90.91;100733.81;5038182;28;20261;-83
2021/09/27 09:15:57;;;;;;;14.53;13.47;;;;;;;19.14;90.87;100739.72;5037162;28;20234;-85
2021/09/27 09:18:30;;;;;;;16.30;14.93;;;;;;;18.96;89.35;100823.50;5029370;28;20330;-84
2021/09/27 09:20:59;;;;;;;13.97;13.07;;;;;;;19.02;89.17;100783.53;5011237;28;20207;-81
2021/09/27 09:23:32;;;;;;;13.40;12.37;;;;;;;19.01;87.96;100821.50;5005060;28;20253;-84
2021/09/27 09:26:01;;;;;;;14.67;13.67;;;;;;;18.98;88.33;100828.72;5007252;28;20239;-83
2021/09/27 09:28:28;;;;;;;14.27;13.27;;;;;;;19.01;88.37;100810.09;5004529;28;20232;-83
2021/09/27 09:31:04;;;;;;;14.27;13.27;;;;;;;19.00;88.41;100801.25;5012623;28;20201;-83
2021/09/27 09:33:45;;;;;;;14.17;13.10;;;;;;;19.06;88.07;100816.00;5008770;28;20693;-83
2021/09/27 09:36:14;;;;;;;14.30;13.00;;;;;;;19.08;88.15;100814.13;5005928;28;20238;-83
2021/09/27 09:38:51;;;;;;;14.47;13.33;;;;;;;19.17;86.69;100842.81;5010776;28;20214;-84
2021/09/27 09:41:42;;;;;;;14.97;13.77;;;;;;;19.27;87.16;100832.63;5008917;28;20224;-85
2021/09/27 09:44:25;;;;;;;14.27;13.13;;;;;;;19.31;87.24;100817.47;5006396;28;20205;-84
2021/09/27 09:46:59;;;;;;;14.63;13.17;;;;;;;19.36;86.94;100839.25;5007718;28;20797;-84
2021/09/27 09:49:30;;;;;;;14.63;13.50;;;;;;;19.45;86.19;100852.03;5006854;28;20208;-83
2021/09/27 09:52:01;;;;;;;14.30;13.20;;;;;;;19.51;86.09;100841.16;5005524;28;20583;-85
2021/09/27 09:54:30;;;;;;;12.73;11.90;;;;;;;19.50;85.90;100835.91;5007231;28;20680;-83
2021/09/27 09:57:25;;;;;;;13.27;12.27;;;;;;;19.52;84.92;100874.63;5004811;28;20233;-85
2021/09/27 10:00:00;;;;;;;12.20;11.40;;;;;;;19.52;85.61;100840.19;5005768;28;20205;-85
2021/09/27 10:02:28;;;;;;;11.50;10.70;;;;;;;19.57;84.63;100877.06;5006278;28;20200;-85
2021/09/27 10:05:04;;;;;;;11.70;10.77;;;;;;;19.55;83.21;100938.03;5004575;28;20205;-85
2021/09/27 10:07:38;;;;;;;11.43;10.63;;;;;;;19.62;83.63;100920.94;5007015;28;20195;-85
2021/09/27 10:10:30;;;;;;;10.33;9.40;;;;;;;19.64;82.18;100949.97;5014444;28;20209;-86
2021/09/27 10:12:59;;;;;;;9.80;9.07;;;;;;;19.63;82.46;100961.50;5003990;28;20213;-84
2021/09/27 10:15:46;;;;;;;9.83;8.97;;;;;;;19.67;81.24;100991.34;5004961;28;20226;-85
2021/09/27 10:18:28;;;;;;;9.37;8.77;;;;;;;19.70;83.45;100925.84;5007917;28;20226;-85
2021/09/27 10:21:14;;;;;;;9.47;8.67;;;;;;;19.61;82.71;100899.81;5004004;28;20205;-81
2021/09/27 10:23:42;;;;;;;9.43;8.63;;;;;;;19.69;83.07;100902.09;5004004;28;20206;-82
2021/09/27 10:26:19;;;;;;;9.03;8.33;;;;;;;19.60;81.91;100981.06;5003984;28;20278;-82
2021/09/27 10:28:50;;;;;;;8.97;8.20;;;;;;;19.68;81.85;100946.22;5004722;28;20209;-86
2021/09/27 10:31:20;;;;;;;7.40;7.00;;;;;;;19.64;79.96;101025.00;5004080;28;20255;-84
2021/09/27 10:33:52;;;;;;;7.50;7.00;;;;;;;19.79;79.88;101028.72;5003958;28;20711;-84
2021/09/27 10:36:22;;;;;;;8.53;7.77;;;;;;;19.95;80.21;101018.25;5004308;28;20236;-84
2021/09/27 10:38:52;;;;;;;8.63;8.03;;;;;;;20.05;80.23;101010.69;5008759;28;20210;-83
2021/09/27 10:41:21;;;;;;;8.30;7.60;;;;;;;20.05;79.41;101018.66;5005630;28;20202;-84
2021/09/27 10:43:53;;;;;;;8.17;7.53;;;;;;;20.13;79.95;100999.72;5004181;28;20202;-85
2021/09/27 10:46:23;;;;;;;7.13;6.53;;;;;;;20.16;78.82;101032.25;5004359;28;20226;-83
2021/09/27 10:48:53;;;;;;;6.50;6.00;;;;;;;19.99;76.39;101123.16;5003496;28;20260;-83
2021/09/27 10:51:23;;;;;;;7.70;7.10;;;;;;;20.21;77.96;101061.16;5004512;28;20217;-85
2021/09/27 10:53:56;;;;;;;6.07;5.67;;;;;;;20.23;76.60;101126.44;5004037;28;20210;-85
2021/09/27 10:56:32;;;;;;;6.40;5.93;;;;;;;20.36;77.03;101102.84;5004483;28;20226;-82
2021/09/27 10:59:06;;;;;;;6.00;5.60;;;;;;;20.40;75.67;101141.53;5003703;28;20209;-83
2021/09/27 11:01:40;;;;;;;5.63;5.23;;;;;;;20.39;74.85;101160.16;5004110;28;20206;-85
2021/09/27 11:04:12;;;;;;;6.10;5.57;;;;;;;20.42;74.02;101178.59;5003792;28;20210;-82
2021/09/27 11:07:01;;;;;;;6.20;5.70;;;;;;;20.51;74.58;101164.88;5005765;28;20219;-84
2021/09/27 11:09:37;;;;;;;5.80;5.40;;;;;;;20.63;74.71;101153.72;5009306;28;20213;-83
2021/09/27 11:12:07;;;;;;;5.50;5.07;;;;;;;20.62;73.89;101170.53;5006119;28;20210;-81
2021/09/27 11:14:50;;;;;;;6.07;5.67;;;;;;;20.76;75.36;101119.44;5003606;28;20207;-82
2021/09/27 11:17:32;;;;;;;6.03;5.50;;;;;;;20.80;74.62;101131.63;5002251;28;20233;-82
2021/09/27 11:20:16;;;;;;;7.10;6.10;;;;;;;20.62;71.90;101220.09;5003113;28;20221;-82
2021/09/27 11:23:04;;;;;;;5.67;5.20;;;;;;;20.78;72.96;101207.78;5004063;28;20202;-82
2021/09/27 11:25:35;;;;;;;5.70;5.27;;;;;;;20.71;73.31;101193.09;5005358;28;20227;-84
2021/09/27 11:28:30;;;;;;;7.03;5.30;;;;;;;20.86;73.23;101177.38;5003587;28;20208;-81
2021/09/27 11:31:20;;;;;;;5.73;5.23;;;;;;;20.82;70.59;101273.03;5003182;28;20206;-82
2021/09/27 11:33:50;;;;;;;6.40;5.80;;;;;;;21.18;70.41;101263.34;5003437;28;20205;-83
2021/09/27 11:36:33;;;;;;;5.37;5.07;;;;;;;21.41;69.12;101324.13;5005441;28;20237;-82
2021/09/27 11:39:32;;;;;;;5.20;4.90;;;;;;;22.28;66.54;101386.22;5008128;28;20206;-83
2021/09/27 11:42:15;;;;;;;5.20;4.80;;;;;;;22.37;64.48;101460.22;5006218;28;20206;-80
2021/09/27 11:44:54;;;;;;;5.57;5.17;;;;;;;22.20;66.30;101358.22;5003754;28;20206;-81